createdAt,value
2019-02-17T00:01:27.133Z,69.95
2019-02-17T00:04:34.730Z,71.39
2019-02-17T00:07:44.736Z,71.86
2019-02-17T00:10:54.378Z,71.20
2019-02-17T00:14:01.670Z,71.86
2019-02-17T00:17:09.190Z,70.33
2019-02-17T00:20:16.634Z,72.89
2019-02-17T00:23:26.857Z,71.03
2019-02-17T00:26:34.694Z,70.45
2019-02-17T00:29:42.152Z,73.36
2019-02-17T00:32:49.847Z,69.88
2019-02-17T00:35:57.419Z,66.98
2019-02-17T00:39:05.773Z,65.46
2019-02-17T00:42:16.303Z,65.83
2019-02-17T00:45:23.964Z,64.45
2019-02-17T00:48:34.339Z,65.86
2019-02-17T00:51:43.724Z,64.49
2019-02-17T00:54:51.020Z,64.89
2019-02-17T00:57:58.534Z,65.04
2019-02-17T01:01:06.142Z,63.75
2019-02-17T01:04:13.671Z,64.07
2019-02-17T01:07:21.129Z,64.25
2019-02-17T01:10:29.689Z,65.15
2019-02-17T01:13:38.132Z,63.55
2019-02-17T01:16:56.196Z,64.42
2019-02-17T01:20:07.207Z,64.66
2019-02-17T01:23:14.656Z,64.19
2019-02-17T01:26:22.647Z,64.75
2019-02-17T01:29:31.146Z,64.69
2019-02-17T01:32:39.295Z,63.58
2019-02-17T01:35:46.781Z,64.22
2019-02-17T01:38:54.286Z,64.09
2019-02-17T01:42:01.715Z,63.80
2019-02-17T01:45:10.297Z,65.04
2019-02-17T01:48:17.972Z,64.89
2019-02-17T01:51:28.069Z,64.32
2019-02-17T01:54:35.774Z,65.17
2019-02-17T01:57:44.402Z,64.23
2019-02-17T02:00:52.778Z,64.44
2019-02-17T02:04:01.721Z,64.40
2019-02-17T02:07:09.361Z,64.28
2019-02-17T02:10:17.714Z,64.94
2019-02-17T02:13:27.461Z,64.40
2019-02-17T02:16:35.512Z,64.12
2019-02-17T02:19:43.003Z,64.73
2019-02-17T02:22:50.591Z,64.71
2019-02-17T02:25:58.007Z,64.43
2019-02-17T02:29:07.249Z,64.21
2019-02-17T02:32:15.478Z,64.72
2019-02-17T02:35:23.231Z,64.70
2019-02-17T02:38:32.341Z,64.76
2019-02-17T02:41:40.764Z,64.91
2019-02-17T02:44:49.015Z,64.03
2019-02-17T02:47:57.310Z,64.08
2019-02-17T02:51:04.748Z,63.39
2019-02-17T02:54:12.230Z,63.71
2019-02-17T02:57:19.582Z,63.93
2019-02-17T03:00:27.550Z,64.89
2019-02-17T03:03:36.118Z,63.63
2019-02-17T03:06:51.093Z,64.49
2019-02-17T03:10:06.331Z,63.91
2019-02-17T03:13:24.049Z,63.90
2019-02-17T03:16:37.432Z,64.43
2019-02-17T03:19:46.138Z,64.49
2019-02-17T03:22:53.727Z,64.51
2019-02-17T03:26:01.244Z,64.85
2019-02-17T03:29:09.008Z,64.71
2019-02-17T03:32:16.405Z,64.94
2019-02-17T03:35:24.048Z,65.49
2019-02-17T03:38:32.217Z,65.17
2019-02-17T03:41:39.779Z,64.94
2019-02-17T03:44:48.054Z,64.69
2019-02-17T03:47:56.355Z,64.85
2019-02-17T03:51:05.078Z,65.81
2019-02-17T03:54:13.467Z,65.72
2019-02-17T03:57:21.838Z,65.84
2019-02-17T04:00:32.281Z,65.95
2019-02-17T04:03:40.744Z,66.07
2019-02-17T04:06:49.109Z,66.06
2019-02-17T04:09:59.030Z,66.34
2019-02-17T04:13:07.411Z,66.11
2019-02-17T04:16:15.311Z,66.24
2019-02-17T04:19:22.825Z,66.34
2019-02-17T04:22:30.417Z,66.12
2019-02-17T04:25:37.820Z,66.33
2019-02-17T04:28:45.337Z,66.78
2019-02-17T04:31:53.432Z,66.87
2019-02-17T04:35:01.994Z,66.37
2019-02-17T04:38:10.330Z,66.51
2019-02-17T04:41:17.903Z,66.39
2019-02-17T04:44:28.409Z,67.02
2019-02-17T04:47:36.008Z,66.33
2019-02-17T04:50:45.347Z,66.61
2019-02-17T04:53:54.160Z,66.87
2019-02-17T04:57:02.238Z,66.68
2019-02-17T05:00:12.725Z,67.03
2019-02-17T05:03:20.184Z,66.87
2019-02-17T05:06:30.479Z,66.92
2019-02-17T05:09:37.958Z,66.77
2019-02-17T05:12:45.484Z,67.19
2019-02-17T05:15:53.042Z,66.89
2019-02-17T05:19:00.480Z,66.83
2019-02-17T05:22:08.157Z,67.03
2019-02-17T05:25:15.544Z,67.41
2019-02-17T05:28:23.009Z,67.15
2019-02-17T05:31:32.111Z,67.26
2019-02-17T05:34:39.887Z,67.35
2019-02-17T05:37:47.430Z,67.18
2019-02-17T05:40:54.912Z,67.10
2019-02-17T05:44:02.604Z,67.56
2019-02-17T05:47:10.854Z,67.58
2019-02-17T05:50:20.676Z,67.19
2019-02-17T05:53:29.523Z,67.32
2019-02-17T05:56:37.553Z,67.54
2019-02-17T05:59:45.183Z,67.17
2019-02-17T06:02:52.722Z,67.71
2019-02-17T06:06:00.172Z,67.78
2019-02-17T06:09:09.094Z,67.45
2019-02-17T06:12:18.653Z,67.78
2019-02-17T06:15:26.880Z,68.30
2019-02-17T06:18:34.230Z,67.95
2019-02-17T06:21:41.846Z,68.36
2019-02-17T06:24:49.301Z,68.43
2019-02-17T06:27:57.561Z,68.17
2019-02-17T06:31:13.940Z,68.36
2019-02-17T06:34:14.951Z,68.03
2019-02-17T06:37:22.822Z,68.26
2019-02-17T06:40:31.094Z,68.19
2019-02-17T06:43:38.520Z,68.21
2019-02-17T06:46:50.530Z,68.02
2019-02-17T06:49:58.059Z,68.13
2019-02-17T06:53:05.466Z,67.52
2019-02-17T06:56:27.778Z,67.70
2019-02-17T06:59:35.392Z,67.75
2019-02-17T07:02:42.931Z,67.56
2019-02-17T07:06:11.233Z,67.33
2019-02-17T07:09:18.724Z,67.14
2019-02-17T07:12:29.210Z,66.93
2019-02-17T07:15:36.736Z,66.44
2019-02-17T07:18:44.631Z,66.30
2019-02-17T07:21:52.128Z,66.55
2019-02-17T07:24:59.679Z,66.61
2019-02-17T07:28:08.889Z,65.94
2019-02-17T07:31:16.416Z,65.66
2019-02-17T07:34:23.913Z,65.87
2019-02-17T07:37:33.941Z,66.09
2019-02-17T07:40:41.608Z,65.25
2019-02-17T07:43:49.287Z,65.17
2019-02-17T07:46:56.736Z,64.95
2019-02-17T07:50:04.722Z,65.59
2019-02-17T07:53:14.362Z,65.32
2019-02-17T07:56:22.659Z,64.96
2019-02-17T07:59:30.802Z,64.61
2019-02-17T08:02:41.016Z,64.80
2019-02-17T08:05:49.009Z,64.39
2019-02-17T08:08:59.267Z,64.49
2019-02-17T08:12:07.880Z,64.12
2019-02-17T08:15:15.591Z,63.28
2019-02-17T08:18:23.065Z,63.14
2019-02-17T08:21:34.722Z,61.94
2019-02-17T08:24:42.300Z,61.90
2019-02-17T08:27:50.815Z,62.31
2019-02-17T08:30:59.259Z,62.06
2019-02-17T08:34:07.748Z,61.98
2019-02-17T08:37:16.299Z,62.06
2019-02-17T08:40:26.693Z,61.19
2019-02-17T08:43:34.288Z,61.42
2019-02-17T08:46:41.861Z,61.27
2019-02-17T08:49:49.477Z,61.10
2019-02-17T08:52:57.042Z,60.53
2019-02-17T08:56:04.626Z,60.03
2019-02-17T08:59:12.448Z,60.75
2019-02-17T09:02:19.973Z,60.43
2019-02-17T09:05:29.747Z,59.71
2019-02-17T09:08:40.812Z,58.48
2019-02-17T09:11:48.241Z,57.96
2019-02-17T09:14:56.125Z,55.93
2019-02-17T09:18:03.459Z,56.15
2019-02-17T09:21:12.356Z,57.10
2019-02-17T09:24:21.017Z,56.59
2019-02-17T09:27:29.686Z,55.84
2019-02-17T09:30:37.862Z,56.03
2019-02-17T09:33:45.393Z,57.83
2019-02-17T09:36:53.055Z,58.18
2019-02-17T09:40:01.465Z,56.70
2019-02-17T09:43:10.312Z,56.72
2019-02-17T09:46:17.937Z,55.28
2019-02-17T09:49:25.772Z,54.39
2019-02-17T09:52:34.165Z,52.79
2019-02-17T09:55:46.212Z,53.25
2019-02-17T09:58:53.807Z,54.04
2019-02-17T10:02:01.259Z,52.55
2019-02-17T10:05:09.583Z,51.37
2019-02-17T10:08:18.921Z,52.79
2019-02-17T10:11:30.518Z,51.68
2019-02-17T10:14:39.656Z,49.37
2019-02-17T10:17:50.772Z,50.77
2019-02-17T10:20:59.671Z,48.40
2019-02-17T10:24:07.274Z,43.37
2019-02-17T10:27:15.173Z,46.65
2019-02-17T10:30:22.819Z,46.07
2019-02-17T10:33:31.609Z,46.81
2019-02-17T10:36:40.062Z,45.79
2019-02-17T10:39:47.615Z,45.75
2019-02-17T10:42:55.411Z,42.82
2019-02-17T10:46:06.023Z,43.47
2019-02-17T10:49:13.480Z,44.80
2019-02-17T10:52:21.111Z,43.31
2019-02-17T10:55:31.692Z,42.11
2019-02-17T10:58:39.398Z,43.57
2019-02-17T11:01:47.011Z,42.64
2019-02-17T11:04:54.829Z,43.61
2019-02-17T11:08:02.886Z,43.12
2019-02-17T11:11:11.703Z,43.63
2019-02-17T11:14:20.957Z,43.87
2019-02-17T11:17:30.080Z,42.59
2019-02-17T11:20:38.649Z,41.58
2019-02-17T11:23:48.278Z,43.32
2019-02-17T11:26:56.300Z,40.31
2019-02-17T11:30:05.401Z,42.50
2019-02-17T11:33:17.070Z,40.28
2019-02-17T11:36:27.543Z,40.19
2019-02-17T11:39:35.392Z,40.14
2019-02-17T11:42:42.901Z,40.37
2019-02-17T11:45:50.434Z,41.53
2019-02-17T11:49:02.155Z,40.53
2019-02-17T11:52:10.395Z,37.84
2019-02-17T11:55:18.553Z,38.62
2019-02-17T11:58:26.666Z,39.19
2019-02-17T12:01:37.421Z,38.26
2019-02-17T12:04:46.224Z,39.87
2019-02-17T12:07:54.713Z,37.39
2019-02-17T12:11:03.048Z,37.69
2019-02-17T12:14:12.498Z,37.50
2019-02-17T12:17:20.895Z,35.65
2019-02-17T12:21:04.523Z,37.24
2019-02-17T12:24:24.160Z,34.33
2019-02-17T12:27:42.620Z,35.24
2019-02-17T12:30:52.521Z,34.95
2019-02-17T12:34:01.088Z,32.29
2019-02-17T12:37:09.446Z,32.95
2019-02-17T12:40:17.576Z,33.64
2019-02-17T12:43:27.400Z,34.84
2019-02-17T12:46:34.895Z,33.42
2019-02-17T12:49:43.881Z,31.55
2019-02-17T12:52:51.500Z,30.63
2019-02-17T12:55:59.072Z,33.31
2019-02-17T12:59:06.829Z,31.61
2019-02-17T13:02:15.877Z,32.25
2019-02-17T13:05:24.478Z,32.37
2019-02-17T13:08:32.609Z,31.69
2019-02-17T13:11:40.174Z,31.22
2019-02-17T13:14:47.532Z,32.28
2019-02-17T13:17:55.285Z,32.96
2019-02-17T13:21:02.823Z,32.61
2019-02-17T13:24:10.460Z,32.78
2019-02-17T13:27:18.004Z,32.43
2019-02-17T13:30:25.721Z,31.47
2019-02-17T13:33:39.298Z,31.93
2019-02-17T13:36:43.196Z,33.58
2019-02-17T13:39:50.685Z,32.78
2019-02-17T13:42:58.255Z,31.59
2019-02-17T13:46:05.667Z,31.98
2019-02-17T13:49:13.147Z,30.88
2019-02-17T13:52:24.175Z,32.88
2019-02-17T13:55:32.794Z,33.16
2019-02-17T13:58:43.794Z,32.11
2019-02-17T14:01:51.297Z,33.89
2019-02-17T14:05:02.290Z,33.67
2019-02-17T14:08:09.776Z,33.78
2019-02-17T14:11:17.383Z,34.06
2019-02-17T14:14:25.034Z,32.31
2019-02-17T14:17:33.456Z,30.71
2019-02-17T14:20:42.168Z,31.32
2019-02-17T14:23:50.043Z,31.19
2019-02-17T14:26:58.710Z,28.97
2019-02-17T14:30:08.827Z,30.25
2019-02-17T14:33:16.356Z,29.29
2019-02-17T14:36:24.085Z,30.83
2019-02-17T14:39:31.601Z,30.49
2019-02-17T14:42:39.325Z,28.53
2019-02-17T14:45:47.878Z,29.70
2019-02-17T14:48:56.229Z,30.64
2019-02-17T14:52:04.711Z,29.49
2019-02-17T14:55:13.881Z,28.58
2019-02-17T14:58:22.572Z,28.38
2019-02-17T15:01:30.733Z,29.47
2019-02-17T15:04:38.232Z,28.21
2019-02-17T15:07:46.524Z,28.21
2019-02-17T15:10:55.128Z,27.61
2019-02-17T15:14:04.310Z,30.12
2019-02-17T15:17:12.201Z,29.24
2019-02-17T15:20:20.372Z,28.67
2019-02-17T15:23:30.591Z,29.02
2019-02-17T15:26:40.009Z,29.68
2019-02-17T15:29:48.319Z,30.52
2019-02-17T15:33:03.516Z,30.89
2019-02-17T15:36:05.494Z,30.67
2019-02-17T15:39:14.635Z,32.53
2019-02-17T15:42:22.268Z,35.82
2019-02-17T15:45:29.880Z,35.67
2019-02-17T15:48:37.386Z,35.30
2019-02-17T15:51:45.331Z,36.30
2019-02-17T15:54:53.212Z,38.95
2019-02-17T15:58:01.380Z,44.70
2019-02-17T16:01:09.399Z,44.69
2019-02-17T16:04:17.023Z,46.57
2019-02-17T16:07:27.309Z,44.28
2019-02-17T16:10:34.767Z,44.51
2019-02-17T16:13:42.872Z,42.59
2019-02-17T16:16:50.642Z,40.93
2019-02-17T16:19:58.599Z,45.05
2019-02-17T16:23:06.991Z,44.00
2019-02-17T16:26:16.560Z,46.56
2019-02-17T16:29:25.039Z,49.83
2019-02-17T16:32:33.446Z,48.44
2019-02-17T16:35:44.627Z,49.03
2019-02-17T16:38:51.688Z,49.82
2019-02-17T16:41:59.385Z,43.18
2019-02-17T16:45:08.293Z,45.02
2019-02-17T16:48:16.866Z,47.54
2019-02-17T16:51:28.840Z,46.84
2019-02-17T16:54:36.534Z,44.43
2019-02-17T16:57:44.205Z,47.40
2019-02-17T17:01:00.646Z,48.34
2019-02-17T17:04:08.186Z,49.71
2019-02-17T17:07:15.613Z,54.52
2019-02-17T17:10:23.310Z,54.17
2019-02-17T17:13:36.480Z,54.30
2019-02-17T17:16:44.237Z,53.61
2019-02-17T17:19:51.693Z,54.05
2019-02-17T17:23:00.163Z,56.69
2019-02-17T17:26:08.608Z,56.04
2019-02-17T17:29:16.245Z,54.34
2019-02-17T17:32:23.827Z,53.44
2019-02-17T17:35:32.262Z,53.43
2019-02-17T17:38:40.346Z,48.92
2019-02-17T17:41:48.001Z,53.38
2019-02-17T17:44:55.355Z,53.44
2019-02-17T17:48:02.851Z,57.50
2019-02-17T17:51:11.120Z,57.27
2019-02-17T17:54:19.587Z,61.39
2019-02-17T17:57:27.278Z,61.29
2019-02-17T18:00:35.776Z,59.55
2019-02-17T18:03:43.979Z,59.77
2019-02-17T18:06:51.471Z,60.37
2019-02-17T18:09:58.938Z,60.65
2019-02-17T18:13:06.519Z,58.21
2019-02-17T18:16:14.127Z,63.00
2019-02-17T18:19:22.265Z,63.12
2019-02-17T18:22:29.757Z,59.16
2019-02-17T18:25:37.279Z,61.84
2019-02-17T18:28:46.098Z,62.77
2019-02-17T18:31:53.778Z,63.55
2019-02-17T18:35:01.107Z,62.84
2019-02-17T18:38:09.889Z,65.06
2019-02-17T18:41:17.374Z,64.71
2019-02-17T18:44:25.102Z,63.48
2019-02-17T18:47:32.649Z,64.61
2019-02-17T18:50:40.258Z,66.41
2019-02-17T18:53:47.764Z,63.96
2019-02-17T18:56:55.288Z,62.70
2019-02-17T19:00:02.728Z,65.71
2019-02-17T19:03:11.052Z,67.93
2019-02-17T19:06:19.013Z,68.40
2019-02-17T19:09:29.639Z,65.42
2019-02-17T19:12:37.069Z,66.53
2019-02-17T19:15:45.662Z,66.61
2019-02-17T19:18:53.130Z,64.87
2019-02-17T19:22:00.612Z,62.23
2019-02-17T19:25:08.749Z,63.29
2019-02-17T19:28:16.250Z,65.59
2019-02-17T19:31:23.712Z,63.86
2019-02-17T19:34:31.552Z,61.07
2019-02-17T19:37:39.226Z,60.75
2019-02-17T19:40:46.819Z,58.93
2019-02-17T19:43:54.416Z,57.13
2019-02-17T19:47:02.061Z,57.70
2019-02-17T19:50:11.120Z,56.86
2019-02-17T19:53:19.671Z,57.48
2019-02-17T19:56:27.325Z,57.08
2019-02-17T19:59:34.970Z,57.65
2019-02-17T20:03:04.042Z,59.46
2019-02-17T20:06:13.606Z,57.42
2019-02-17T20:09:22.256Z,58.21
2019-02-17T20:12:30.627Z,56.33
2019-02-17T20:15:38.141Z,57.27
2019-02-17T20:18:45.520Z,55.91
2019-02-17T20:21:54.597Z,55.89
2019-02-17T20:25:02.099Z,56.54
2019-02-17T20:28:10.630Z,56.92
2019-02-17T20:31:18.039Z,58.54
2019-02-17T20:34:26.798Z,56.67
2019-02-17T20:37:34.485Z,56.97
2019-02-17T20:40:44.629Z,55.57
2019-02-17T20:43:52.893Z,54.80
2019-02-17T20:47:17.533Z,55.83
2019-02-17T20:50:40.146Z,55.32
2019-02-17T20:53:52.176Z,55.67
2019-02-17T20:57:10.034Z,55.43
2019-02-17T21:00:18.371Z,56.10
2019-02-17T21:03:29.526Z,56.30
2019-02-17T21:06:36.984Z,55.97
2019-02-17T21:09:45.826Z,56.29
2019-02-17T21:12:55.214Z,57.03
2019-02-17T21:16:06.737Z,57.02
2019-02-17T21:19:18.342Z,57.37
2019-02-17T21:22:29.647Z,58.42
2019-02-17T21:26:00.761Z,58.00
2019-02-17T21:29:14.937Z,58.40
2019-02-17T21:32:27.451Z,58.90
2019-02-17T21:35:39.683Z,60.09
2019-02-17T21:38:50.699Z,60.60
2019-02-17T21:42:00.540Z,61.23
2019-02-17T21:45:11.134Z,61.00
2019-02-17T21:48:21.099Z,59.63
2019-02-17T21:51:31.671Z,58.82
2019-02-17T21:54:41.243Z,58.37
2019-02-17T21:58:01.623Z,58.00
2019-02-17T22:01:20.873Z,58.44
2019-02-17T22:04:41.262Z,59.23
2019-02-17T22:07:53.250Z,58.72
2019-02-17T22:11:15.423Z,57.25
2019-02-17T22:14:31.051Z,57.73
2019-02-17T22:17:59.949Z,58.79
2019-02-17T22:21:11.826Z,60.08
2019-02-17T22:24:34.075Z,59.48
2019-02-17T22:27:46.439Z,59.15
2019-02-17T22:30:58.082Z,59.93
2019-02-17T22:34:11.142Z,60.18
2019-02-17T22:37:26.620Z,59.66
2019-02-17T22:40:41.195Z,59.82
2019-02-17T22:43:52.233Z,61.58
2019-02-17T22:47:05.292Z,63.45
2019-02-17T22:50:18.934Z,64.61
2019-02-17T22:53:43.152Z,65.11
2019-02-17T22:56:50.624Z,65.09
2019-02-17T23:00:03.556Z,66.39
2019-02-17T23:03:21.253Z,65.17
2019-02-17T23:06:41.498Z,63.94
2019-02-17T23:10:09.555Z,65.31
2019-02-17T23:13:24.322Z,66.09
2019-02-17T23:16:34.741Z,67.15
2019-02-17T23:19:45.652Z,68.53
2019-02-17T23:22:59.516Z,68.52
2019-02-17T23:26:08.526Z,69.56
2019-02-17T23:29:18.655Z,69.43
2019-02-17T23:32:32.131Z,69.58
2019-02-17T23:35:47.078Z,68.30
2019-02-17T23:39:05.447Z,67.45
2019-02-17T23:42:24.633Z,69.44
2019-02-17T23:45:37.344Z,69.76
2019-02-17T23:48:46.074Z,69.60
2019-02-17T23:52:02.367Z,68.20
2019-02-17T23:55:22.655Z,69.23
2019-02-17T23:58:31.617Z,70.75
